Time;durP1;ratioP1;P1;durP2;ratioP2;P2;SDS_P1;SDS_P2;PMS_P1;PMS_P2;Temp;Humidity;BMP_temperature;BMP_pressure;BME280_temperature;BME280_humidity;BME280_pressure;Samples;Min_cycle;Max_cycle;Signal;HPM_P1;HPM_P2
2023/10/08 00:02:26;;;;;;;2.30;1.10;;;;;;;8.60;85.63;98115.34;104923;1269;61193;-20
2023/10/08 00:04:57;;;;;;;2.90;1.00;;;;;;;8.46;85.00;98111.15;105105;1269;61193;-20
2023/10/08 00:07:26;;;;;;;2.50;1.00;;;;;;;8.18;85.95;98116.82;104911;1269;70966;-21
2023/10/08 00:09:53;;;;;;;1.50;0.70;;;;;;;7.88;86.75;98115.91;105159;1270;72294;-20
2023/10/08 00:12:21;;;;;;;2.20;0.80;;;;;;;7.74;87.93;98119.46;104828;1271;72674;-21
2023/10/08 00:14:49;;;;;;;4.10;1.10;;;;;;;8.08;86.88;98111.97;104827;1272;61070;-20
2023/10/08 00:17:17;;;;;;;2.50;1.20;;;;;;;8.31;85.11;98109.35;105167;1267;60993;-21
2023/10/08 00:19:45;;;;;;;4.20;0.90;;;;;;;8.22;84.46;98115.44;105137;1267;73032;-21
2023/10/08 00:30:00;;;;;;;2.50;0.60;;;;;;;7.80;86.46;98110.39;102707;1294;600307;-20
2023/10/08 00:32:28;;;;;;;1.40;0.70;;;;;;;8.06;85.24;98098.50;105050;1269;61189;-22
2023/10/08 00:34:55;;;;;;;1.30;0.80;;;;;;;8.10;85.11;98088.94;105084;1264;61046;-20
2023/10/08 00:37:26;;;;;;;3.70;0.90;;;;;;;7.92;85.51;98085.32;105105;1279;72177;-19
2023/10/08 00:39:56;;;;;;;2.30;0.80;;;;;;;7.64;86.41;98079.89;105105;1270;74434;-21
2023/10/08 00:42:28;;;;;;;1.80;0.60;;;;;;;7.52;87.18;98083.84;104867;1273;2988286;-21
2023/10/08 00:44:56;;;;;;;1.30;0.70;;;;;;;7.85;86.83;98081.63;105180;1267;61123;-21
2023/10/08 00:47:27;;;;;;;1.40;0.80;;;;;;;8.20;84.94;98079.81;105241;1267;62501;-20
2023/10/08 00:50:04;;;;;;;2.10;0.80;;;;;;;8.16;84.45;98073.94;105138;1266;61122;-20
2023/10/08 00:52:41;;;;;;;1.80;0.70;;;;;;;7.94;85.17;98071.64;105216;1267;70945;-20
2023/10/08 00:55:11;;;;;;;2.10;0.90;;;;;;;7.80;85.98;98061.30;105218;1266;74372;-20
2023/10/08 00:57:42;;;;;;;4.40;0.50;;;;;;;7.62;86.67;98068.16;105179;1270;72695;-20
2023/10/08 01:00:16;;;;;;;1.30;0.50;;;;;;;8.04;86.11;98072.69;104827;1265;61263;-20
2023/10/08 01:13:19;;;;;;;1.00;0.50;;;;;;;7.80;84.95;98078.02;102654;1295;601001;-20
2023/10/08 01:15:50;;;;;;;1.70;0.60;;;;;;;8.13;84.89;98074.20;104838;1267;61190;-20
2023/10/08 01:18:28;;;;;;;3.20;0.90;;;;;;;8.52;82.77;98075.72;105089;1267;61146;-20
2023/10/08 01:21:04;;;;;;;1.80;0.70;;;;;;;8.49;82.05;98071.92;104871;1272;71989;-20
2023/10/08 01:23:32;;;;;;;1.90;0.60;;;;;;;8.34;82.60;98070.98;104874;1272;74341;-20
2023/10/08 01:26:12;;;;;;;2.40;0.70;;;;;;;8.07;83.03;98065.68;103293;1273;2955180;-21
2023/10/08 01:35:22;;;;;;;1.90;0.70;;;;;;;8.53;83.83;98060.36;102629;1293;600116;-22
2023/10/08 01:45:40;;;;;;;0.50;0.40;;;;;;;8.06;83.87;98060.78;102673;1293;599875;-21
2023/10/08 01:55:53;;;;;;;1.90;0.70;;;;;;;8.70;81.65;98056.80;102626;1293;600231;-21
2023/10/08 01:58:22;;;;;;;2.80;0.90;;;;;;;8.41;81.91;98057.27;104824;1267;61094;-21
2023/10/08 02:08:31;;;;;;;1.50;0.60;;;;;;;8.21;84.12;98046.34;102634;1292;599954;-21
2023/10/08 02:10:59;;;;;;;1.10;0.70;;;;;;;8.63;81.38;98041.34;104874;1267;61113;-21
2023/10/08 02:21:10;;;;;;;1.60;0.80;;;;;;;7.93;82.15;98056.85;102623;1292;599755;-21
2023/10/08 02:23:38;;;;;;;1.00;0.60;;;;;;;7.82;82.80;98062.11;104870;1269;61282;-21
2023/10/08 02:26:06;;;;;;;1.20;0.70;;;;;;;8.22;81.60;98068.92;104818;1266;61113;-21
2023/10/08 02:36:19;;;;;;;4.50;0.90;;;;;;;8.07;80.49;98093.25;102578;1293;600569;-23
2023/10/08 02:46:32;;;;;;;2.10;0.60;;;;;;;8.50;79.53;98081.56;102772;1289;599416;-21
2023/10/08 02:49:03;;;;;;;1.10;0.60;;;;;;;8.39;79.81;98079.42;105024;1269;61186;-21
2023/10/08 02:51:31;;;;;;;1.20;0.90;;;;;;;8.24;80.41;98083.27;104875;1269;61295;-23
2023/10/08 02:53:59;;;;;;;1.70;1.00;;;;;;;8.02;81.33;98089.10;105211;1267;70963;-24
2023/10/08 03:04:17;;;;;;;3.40;1.00;;;;;;;8.64;79.42;98087.98;102626;1293;600144;-22
2023/10/08 03:06:54;;;;;;;3.70;0.60;;;;;;;8.31;80.28;98088.87;104785;1267;61065;-21
2023/10/08 03:09:32;;;;;;;1.90;0.70;;;;;;;8.13;81.55;98088.54;104752;1267;61161;-23
2023/10/08 03:11:59;;;;;;;1.90;1.00;;;;;;;8.03;82.43;98091.15;104788;1273;70748;-24
2023/10/08 03:14:41;;;;;;;1.30;0.60;;;;;;;8.28;81.70;98082.91;104862;1266;74325;-23
2023/10/08 03:17:09;;;;;;;3.40;0.80;;;;;;;8.57;80.70;98074.75;102496;1267;3224572;-24
2023/10/08 03:19:38;;;;;;;2.00;0.70;;;;;;;8.42;80.61;98064.19;105053;1268;61643;-22
2023/10/08 03:22:05;;;;;;;3.30;0.90;;;;;;;8.27;81.36;98061.54;105125;1263;61122;-22
2023/10/08 03:27:15;;;;;;;3.60;0.80;;;;;;;7.96;83.56;98072.56;105686;1259;74265;-22
2023/10/08 03:29:42;;;;;;;1.00;0.70;;;;;;;8.41;82.36;98073.00;105651;1261;71408;-22
2023/10/08 03:32:17;;;;;;;1.10;0.80;;;;;;;8.63;81.09;98080.45;105702;1253;61103;-23
2023/10/08 03:34:47;;;;;;;1.50;0.80;;;;;;;8.53;81.18;98081.20;109423;1254;59202;-24
2023/10/08 03:37:20;;;;;;;3.80;1.10;;;;;;;8.32;82.02;98069.13;109352;1253;71622;-24
2023/10/08 03:39:51;;;;;;;2.10;1.00;;;;;;;8.18;82.51;98068.37;109448;1255;73078;-24
2023/10/08 03:42:25;;;;;;;0.70;0.60;;;;;;;8.03;83.48;98077.29;109554;1253;72646;-24
2023/10/08 03:44:55;;;;;;;2.10;0.90;;;;;;;8.43;82.40;98077.80;109317;1254;59161;-24
2023/10/08 03:47:26;;;;;;;1.10;0.50;;;;;;;8.74;80.61;98080.48;109497;1252;58810;-24
2023/10/08 03:49:54;;;;;;;3.10;1.60;;;;;;;8.71;80.07;98090.96;109304;1253;71880;-24
2023/10/08 03:52:26;;;;;;;1.40;0.60;;;;;;;8.41;80.94;98117.10;109486;1254;74328;-24
2023/10/08 03:55:27;;;;;;;5.00;0.90;;;;;;;8.22;81.51;98122.70;109473;1252;72784;-24
2023/10/08 03:57:56;;;;;;;2.20;1.10;;;;;;;7.98;81.75;98110.43;109381;1253;60192;-24
2023/10/08 04:00:40;;;;;;;2.20;0.80;;;;;;;8.03;82.08;98096.20;109607;1252;60004;-24
2023/10/08 04:03:11;;;;;;;1.70;0.70;;;;;;;8.58;79.80;98089.98;109603;1252;73023;-24
2023/10/08 04:08:54;;;;;;;3.30;0.80;;;;;;;8.67;78.37;98089.56;109432;1254;72755;-24
2023/10/08 04:11:30;;;;;;;2.40;0.90;;;;;;;8.35;78.98;98088.97;109274;1254;60056;-23
2023/10/08 04:14:02;;;;;;;5.60;1.10;;;;;;;8.19;79.71;98080.24;109422;1254;59114;-23
2023/10/08 04:16:36;;;;;;;3.90;0.90;;;;;;;8.06;80.40;98083.12;109444;1254;73067;-24
2023/10/08 04:19:04;;;;;;;1.20;0.60;;;;;;;7.98;81.45;98086.36;109131;1253;74313;-24
2023/10/08 04:21:33;;;;;;;2.90;0.80;;;;;;;8.52;79.70;98073.10;109452;1253;72632;-24
2023/10/08 04:24:03;;;;;;;3.10;0.80;;;;;;;8.80;77.86;98074.27;109391;1254;60011;-24
2023/10/08 04:26:32;;;;;;;1.70;0.90;;;;;;;8.70;77.76;98082.73;109407;1254;59107;-23
2023/10/08 04:29:06;;;;;;;2.80;0.80;;;;;;;8.35;78.71;98086.28;109329;1253;71757;-24
2023/10/08 04:31:37;;;;;;;1.20;0.80;;;;;;;8.12;79.83;98081.67;109294;1253;73073;-24
2023/10/08 04:34:19;;;;;;;4.70;0.80;;;;;;;7.91;80.69;98078.98;109389;1254;73340;-24
2023/10/08 04:36:57;;;;;;;1.80;1.00;;;;;;;7.78;81.37;98072.36;109264;1256;60371;-24
2023/10/08 04:39:34;;;;;;;4.10;1.10;;;;;;;8.23;80.30;98082.63;109423;1254;58755;-24
2023/10/08 04:42:09;;;;;;;3.30;0.90;;;;;;;8.57;78.85;98078.71;109172;1254;71826;-24
2023/10/08 04:44:40;;;;;;;3.00;0.80;;;;;;;8.52;78.55;98090.69;109308;1254;74323;-24
2023/10/08 04:47:09;;;;;;;1.90;0.90;;;;;;;8.25;79.51;98114.83;109130;1253;71352;-24
2023/10/08 04:49:45;;;;;;;6.60;0.90;;;;;;;8.12;80.14;98103.67;109241;1254;60073;-24
2023/10/08 04:52:15;;;;;;;3.10;0.90;;;;;;;7.98;81.15;98095.91;109413;1253;60002;-24
2023/10/08 04:54:54;;;;;;;4.00;1.00;;;;;;;7.88;81.23;98114.02;109277;1254;72877;-24
2023/10/08 04:57:22;;;;;;;1.80;0.80;;;;;;;8.33;80.09;98117.63;109160;1254;74340;-24
2023/10/08 04:59:50;;;;;;;5.40;1.00;;;;;;;8.52;78.25;98118.39;109388;1254;72702;-24
2023/10/08 05:12:37;;;;;;;3.70;0.80;;;;;;;7.87;81.13;98170.45;109039;1253;71405;-24
2023/10/08 05:18:51;;;;;;;3.90;1.10;;;;;;;8.53;78.45;98176.14;109259;1254;60005;-24
2023/10/08 05:23:32;;;;;;;1.50;0.90;;;;;;;8.22;79.22;98198.80;109440;1253;73458;-23
2023/10/08 05:29:00;;;;;;;1.80;0.90;;;;;;;7.91;80.72;98198.05;109248;1253;58829;-23
2023/10/08 05:31:46;;;;;;;2.00;1.30;;;;;;;7.85;81.50;98191.67;109208;1253;60085;-23
2023/10/08 05:34:22;;;;;;;2.70;0.70;;;;;;;8.49;79.45;98196.46;109296;1259;75129;-23
2023/10/08 05:37:15;;;;;;;4.10;1.10;;;;;;;8.59;77.83;98201.02;109305;1254;74283;-24
2023/10/08 05:42:13;;;;;;;3.70;1.00;;;;;;;8.24;78.28;98221.10;109244;1253;58864;-23
2023/10/08 05:44:45;;;;;;;3.50;1.00;;;;;;;7.94;78.54;98217.95;109241;1254;60075;-23
2023/10/08 05:47:38;;;;;;;3.40;0.80;;;;;;;7.83;78.89;98227.55;109358;1253;73026;-23
2023/10/08 05:55:27;;;;;;;3.20;1.00;;;;;;;8.54;74.47;98224.91;109171;1255;60075;-24
2023/10/08 05:58:45;;;;;;;1.50;0.70;;;;;;;8.36;73.94;98240.10;109127;1254;58806;-23
2023/10/08 06:03:37;;;;;;;3.70;1.00;;;;;;;8.08;74.75;98244.70;109222;1254;74756;-24
2023/10/08 06:08:51;;;;;;;2.50;1.00;;;;;;;7.72;76.28;98265.81;109164;1255;60106;-23
2023/10/08 06:14:16;;;;;;;2.20;1.00;;;;;;;8.08;76.05;98265.45;109137;1255;71845;-24
2023/10/08 06:16:46;;;;;;;2.90;0.90;;;;;;;8.38;74.23;98264.89;109236;1255;74310;-24
2023/10/08 06:19:14;;;;;;;2.20;0.80;;;;;;;8.31;74.26;98270.77;109225;1256;72686;-24
2023/10/08 06:21:42;;;;;;;2.60;0.90;;;;;;;8.25;74.81;98275.63;109268;1255;60044;-24
2023/10/08 06:24:10;;;;;;;3.20;1.10;;;;;;;7.92;75.77;98278.56;109314;1257;58730;-23
2023/10/08 06:26:48;;;;;;;2.20;1.40;;;;;;;7.85;76.35;98273.23;109159;1255;73078;-23
2023/10/08 06:29:26;;;;;;;1.80;1.10;;;;;;;7.67;77.30;98279.05;109245;1254;73047;-23
2023/10/08 06:31:55;;;;;;;1.20;0.70;;;;;;;7.60;77.42;98281.78;109258;1255;71622;-23
2023/10/08 06:34:27;;;;;;;2.90;1.20;;;;;;;8.13;76.57;98278.84;109136;1255;58777;-24
2023/10/08 06:36:57;;;;;;;2.20;1.00;;;;;;;8.49;74.27;98277.85;109271;1255;60036;-23
2023/10/08 06:39:25;;;;;;;1.70;0.90;;;;;;;8.47;73.16;98272.20;109093;1256;73022;-24
2023/10/08 06:41:53;;;;;;;3.40;1.10;;;;;;;8.36;73.41;98277.68;109152;1256;72311;-24
2023/10/08 06:44:22;;;;;;;1.70;0.80;;;;;;;8.25;74.15;98279.59;109153;1256;71377;-24
2023/10/08 06:46:54;;;;;;;5.00;0.70;;;;;;;8.11;74.86;98283.89;109301;1256;59579;-24
2023/10/08 06:49:23;;;;;;;2.40;0.90;;;;;;;7.94;74.71;98290.96;109165;1254;58869;-24
2023/10/08 06:51:51;;;;;;;2.90;0.80;;;;;;;7.86;74.58;98283.64;109164;1256;72835;-24
2023/10/08 06:54:19;;;;;;;1.30;0.70;;;;;;;7.77;74.77;98286.67;109296;1255;74359;-23
2023/10/08 06:56:51;;;;;;;1.00;0.60;;;;;;;7.66;74.86;98292.27;109275;1255;72645;-23
2023/10/08 06:59:23;;;;;;;1.70;0.80;;;;;;;8.07;74.11;98294.41;109296;1255;59074;-23
2023/10/08 07:01:51;;;;;;;2.00;0.80;;;;;;;8.49;72.65;98296.34;109157;1261;58838;-24
2023/10/08 07:04:21;;;;;;;2.70;1.10;;;;;;;8.48;71.92;98292.78;109033;1254;73087;-23
2023/10/08 07:06:50;;;;;;;2.60;1.10;;;;;;;8.29;72.38;98289.20;109322;1257;74281;-23
2023/10/08 07:11:56;;;;;;;3.30;1.10;;;;;;;7.94;72.52;98293.73;109240;1255;60081;-24
2023/10/08 07:14:26;;;;;;;4.40;1.20;;;;;;;7.83;72.82;98301.75;109131;1255;58751;-24
2023/10/08 07:16:58;;;;;;;3.30;1.40;;;;;;;7.74;73.74;98303.98;109247;1256;71927;-23
2023/10/08 07:19:36;;;;;;;4.00;1.00;;;;;;;7.77;74.69;98313.85;109135;1255;73604;-23
2023/10/08 07:22:28;;;;;;;1.60;0.70;;;;;;;7.90;74.03;98314.95;109122;1257;72741;-24
2023/10/08 07:24:57;;;;;;;1.70;0.70;;;;;;;8.42;71.05;98315.04;109115;1256;58810;-24
2023/10/08 07:27:30;;;;;;;1.80;0.90;;;;;;;8.60;70.49;98322.70;109214;1255;60110;-23
2023/10/08 07:30:02;;;;;;;4.80;0.90;;;;;;;8.56;70.56;98324.09;109154;1257;72643;-24
2023/10/08 07:32:30;;;;;;;2.20;0.80;;;;;;;8.42;70.61;98322.77;109251;1257;74519;-24
2023/10/08 07:35:15;;;;;;;2.40;0.90;;;;;;;8.34;70.80;98329.91;109198;1257;71470;-24
2023/10/08 07:37:44;;;;;;;2.40;0.70;;;;;;;8.26;70.54;98330.23;109076;1255;58842;-23
2023/10/08 07:40:13;;;;;;;3.90;0.70;;;;;;;8.28;71.36;98338.15;109255;1255;58755;-23
2023/10/08 07:42:41;;;;;;;1.90;0.90;;;;;;;8.19;70.88;98333.33;109123;1257;73886;-24
2023/10/08 07:45:09;;;;;;;2.00;0.70;;;;;;;8.14;71.22;98336.86;109243;1257;74455;-24
2023/10/08 07:47:37;;;;;;;1.80;0.90;;;;;;;8.10;70.84;98338.98;109178;1257;71410;-23
2023/10/08 07:50:11;;;;;;;1.70;0.80;;;;;;;8.13;71.58;98340.58;109096;1256;59170;-23
2023/10/08 07:52:44;;;;;;;2.90;1.00;;;;;;;8.23;71.02;98339.95;109043;1256;58746;-23
2023/10/08 07:55:17;;;;;;;2.90;0.80;;;;;;;8.67;68.27;98326.31;109239;1255;72711;-24
2023/10/08 07:57:46;;;;;;;1.70;0.60;;;;;;;9.07;67.13;98337.81;109254;1257;74158;-24
2023/10/08 08:00:18;;;;;;;3.50;1.00;;;;;;;9.09;66.62;98334.46;109198;1260;72693;-23
2023/10/08 08:02:46;;;;;;;4.70;0.70;;;;;;;8.86;67.05;98338.18;109117;1256;60147;-24
2023/10/08 08:05:16;;;;;;;2.30;0.90;;;;;;;8.94;67.93;98340.78;109258;1257;60024;-24
2023/10/08 08:07:49;;;;;;;1.60;0.80;;;;;;;8.83;66.50;98335.17;109253;1256;71847;-24
2023/10/08 08:10:18;;;;;;;1.30;0.40;;;;;;;8.86;66.82;98335.07;109156;1255;73028;-24
2023/10/08 08:12:46;;;;;;;1.00;0.50;;;;;;;9.01;66.83;98339.52;109197;1256;72687;-23
2023/10/08 08:15:16;;;;;;;1.80;0.70;;;;;;;9.07;65.05;98338.66;109194;1257;58755;-24
2023/10/08 08:17:44;;;;;;;1.10;0.60;;;;;;;9.13;64.96;98333.14;109138;1255;60184;-24
2023/10/08 08:20:18;;;;;;;2.70;0.60;;;;;;;9.27;64.43;98339.34;109249;1257;73895;-24
2023/10/08 08:22:49;;;;;;;1.30;0.70;;;;;;;9.02;62.28;98328.20;109138;1255;74445;-24
2023/10/08 08:25:33;;;;;;;2.50;0.80;;;;;;;8.97;59.99;98333.83;109220;1256;72781;-24
2023/10/08 08:28:06;;;;;;;2.10;0.70;;;;;;;8.90;60.97;98339.23;109109;1256;58765;-23
2023/10/08 08:30:36;;;;;;;1.20;0.60;;;;;;;9.17;61.65;98340.05;109110;1256;59997;-24
2023/10/08 08:33:10;;;;;;;1.10;0.60;;;;;;;9.19;58.73;98344.73;109181;1257;73872;-24
2023/10/08 08:35:39;;;;;;;0.80;0.60;;;;;;;9.08;58.42;98340.11;109097;1256;74288;-24
2023/10/08 08:38:08;;;;;;;1.50;0.60;;;;;;;9.09;58.59;98341.13;109187;1257;72704;-24
2023/10/08 08:40:36;;;;;;;1.10;0.60;;;;;;;8.95;58.27;98339.86;109214;1257;60091;-23
2023/10/08 08:43:05;;;;;;;2.80;0.70;;;;;;;9.13;59.10;98334.17;109154;1256;59969;-24
2023/10/08 08:45:33;;;;;;;2.70;0.80;;;;;;;8.88;57.93;98336.80;109085;1257;72927;-24
2023/10/08 08:48:01;;;;;;;4.60;0.80;;;;;;;9.10;56.63;98335.23;109197;1256;74303;-24
2023/10/08 08:50:29;;;;;;;2.90;0.70;;;;;;;9.30;56.50;98344.66;109211;1256;71420;-23
2023/10/08 08:52:58;;;;;;;1.60;0.50;;;;;;;9.18;56.98;98340.95;109003;1263;58809;-23
2023/10/08 08:55:27;;;;;;;0.70;0.50;;;;;;;9.24;56.55;98348.39;109211;1257;58691;-25
2023/10/08 08:57:55;;;;;;;1.50;0.50;;;;;;;9.23;56.20;98358.25;109141;1257;74005;-24
2023/10/08 09:00:28;;;;;;;1.90;0.80;;;;;;;9.11;56.01;98364.45;109109;1257;74619;-23
2023/10/08 09:02:56;;;;;;;2.40;0.50;;;;;;;9.58;55.37;98362.80;109078;1257;72664;-24
2023/10/08 09:05:27;;;;;;;2.10;0.80;;;;;;;10.16;55.49;98362.92;109137;1257;60032;-24
2023/10/08 09:08:02;;;;;;;0.90;0.60;;;;;;;10.40;55.18;98361.08;109127;1257;60074;-24
2023/10/08 09:10:36;;;;;;;0.70;0.50;;;;;;;10.36;54.55;98348.27;109086;1262;73834;-24
2023/10/08 09:13:07;;;;;;;2.60;0.70;;;;;;;10.05;53.02;98344.95;109075;1257;74329;-23
2023/10/08 09:15:36;;;;;;;1.20;0.80;;;;;;;9.97;52.52;98341.70;109087;1257;72649;-24
2023/10/08 09:18:04;;;;;;;1.30;0.60;;;;;;;10.07;51.87;98346.89;109095;1262;58795;-24
2023/10/08 09:20:42;;;;;;;1.30;0.60;;;;;;;10.45;51.85;98345.58;109079;1257;58862;-24
2023/10/08 09:23:13;;;;;;;1.10;0.70;;;;;;;10.39;51.58;98339.44;109076;1257;73913;-24
2023/10/08 09:25:42;;;;;;;2.40;0.60;;;;;;;10.69;51.08;98340.17;109030;1257;73355;-24
2023/10/08 09:28:12;;;;;;;0.60;0.40;;;;;;;10.83;50.74;98330.22;109001;1257;75116;-24
2023/10/08 09:30:41;;;;;;;2.20;0.80;;;;;;;11.43;50.85;98337.63;109148;1256;60025;-24
2023/10/08 09:33:10;;;;;;;2.90;0.60;;;;;;;11.63;49.11;98325.63;109113;1257;58925;-24
2023/10/08 09:35:38;;;;;;;1.60;0.50;;;;;;;11.74;48.98;98338.11;109025;1257;73840;-24
2023/10/08 09:38:09;;;;;;;2.00;0.70;;;;;;;11.87;49.53;98335.98;109118;1257;73054;-24
2023/10/08 09:40:38;;;;;;;1.10;0.60;;;;;;;11.76;49.27;98325.06;109089;1257;71433;-24
2023/10/08 09:43:08;;;;;;;1.50;0.40;;;;;;;11.68;47.68;98322.59;109005;1263;60049;-24
2023/10/08 09:45:40;;;;;;;0.40;0.40;;;;;;;11.73;46.55;98314.05;109016;1256;60250;-24
2023/10/08 09:48:13;;;;;;;0.70;0.50;;;;;;;11.29;48.30;98330.92;109092;1257;72996;-24
2023/10/08 09:50:42;;;;;;;1.50;0.80;;;;;;;10.42;52.47;98328.92;108974;1257;74367;-23
2023/10/08 09:53:16;;;;;;;2.70;0.70;;;;;;;9.81;58.09;98342.45;109116;1257;73944;-22
2023/10/08 09:55:54;;;;;;;2.30;0.70;;;;;;;9.15;61.99;98358.18;109046;1257;58825;-22
2023/10/08 09:58:22;;;;;;;3.30;0.50;;;;;;;8.83;62.84;98366.95;109149;1257;58768;-22
2023/10/08 10:00:50;;;;;;;2.40;0.80;;;;;;;8.43;64.76;98373.45;109118;1257;74039;-22
2023/10/08 10:03:22;;;;;;;1.50;0.50;;;;;;;8.11;64.70;98367.44;109022;1256;74344;-22
2023/10/08 10:05:51;;;;;;;1.40;0.50;;;;;;;7.75;65.74;98368.20;109001;1257;71485;-23
2023/10/08 10:08:25;;;;;;;2.10;0.40;;;;;;;7.72;67.14;98371.78;109038;1257;58785;-22
2023/10/08 10:11:01;;;;;;;1.20;0.60;;;;;;;7.69;66.78;98371.29;109010;1257;58710;-23
2023/10/08 10:13:44;;;;;;;1.60;0.50;;;;;;;7.76;66.76;98368.31;109021;1257;73910;-23
2023/10/08 10:16:24;;;;;;;1.40;0.50;;;;;;;7.75;65.87;98359.22;109045;1257;73523;-23
2023/10/08 10:19:00;;;;;;;1.30;0.50;;;;;;;8.36;64.54;98357.93;109028;1257;71378;-23
2023/10/08 10:21:32;;;;;;;1.70;0.50;;;;;;;8.97;61.95;98355.92;109003;1257;60203;-23
2023/10/08 10:24:05;;;;;;;1.10;0.70;;;;;;;9.57;61.37;98346.82;108959;1257;60454;-23
2023/10/08 10:26:40;;;;;;;1.60;0.60;;;;;;;9.97;60.00;98341.87;109066;1257;72642;-24
2023/10/08 10:29:27;;;;;;;1.40;0.50;;;;;;;9.81;55.70;98337.37;108942;1257;73047;-24
2023/10/08 10:31:58;;;;;;;2.90;0.70;;;;;;;10.17;54.74;98337.98;109046;1262;72842;-24
2023/10/08 10:34:30;;;;;;;3.60;0.60;;;;;;;10.63;53.62;98337.42;109024;1257;60132;-24
2023/10/08 10:37:19;;;;;;;1.10;0.80;;;;;;;11.17;52.76;98330.70;109018;1257;59094;-24
2023/10/08 10:39:55;;;;;;;1.30;0.60;;;;;;;11.04;50.64;98332.61;109034;1257;72652;-24
2023/10/08 10:42:26;;;;;;;1.80;0.60;;;;;;;10.73;50.57;98331.34;109104;1258;73396;-24
2023/10/08 10:44:58;;;;;;;2.10;0.60;;;;;;;10.22;46.82;98333.20;109044;1257;72665;-24
2023/10/08 10:47:42;;;;;;;1.30;0.60;;;;;;;10.01;45.72;98335.39;109019;1257;60099;-24
2023/10/08 10:50:31;;;;;;;;;;;;;;;9.85;46.02;98344.20;109047;1257;60115;-24
2023/10/08 10:53:10;;;;;;;0.70;0.40;;;;;;;9.64;43.99;98336.85;109107;1257;73106;-24
2023/10/08 10:55:50;;;;;;;0.80;0.40;;;;;;;9.52;44.47;98341.54;109032;1257;74331;-24
2023/10/08 10:58:28;;;;;;;1.30;0.50;;;;;;;9.43;46.39;98348.19;108999;1257;72700;-24
2023/10/08 11:01:04;;;;;;;4.70;0.70;;;;;;;9.45;46.65;98345.10;108992;1257;58897;-24
2023/10/08 11:03:35;;;;;;;0.50;0.40;;;;;;;9.54;46.91;98342.06;108897;1257;60034;-24
2023/10/08 11:13:39;;;;;;;0.80;0.60;;;;;;;9.92;47.39;98329.98;102685;1293;600008;-22
2023/10/08 11:16:08;;;;;;;0.60;0.40;;;;;;;10.10;46.60;98328.55;105589;1259;61179;-22
2023/10/08 11:26:16;;;;;;;1.70;0.60;;;;;;;10.83;43.90;98312.22;102594;1292;600206;-22
2023/10/08 11:28:47;;;;;;;1.10;0.50;;;;;;;11.14;44.65;98313.13;104745;1273;61233;-23
2023/10/08 11:31:19;;;;;;;1.50;0.70;;;;;;;11.16;44.86;98326.30;104787;1270;61105;-24
2023/10/08 11:33:56;;;;;;;2.00;1.00;;;;;;;10.83;44.34;98316.73;104724;1274;72212;-22
2023/10/08 11:36:27;;;;;;;1.00;0.40;;;;;;;10.41;45.22;98322.77;104788;1267;74369;-23
2023/10/08 11:39:02;;;;;;;2.10;0.70;;;;;;;10.03;46.24;98320.85;102472;1273;3131890;-23
2023/10/08 11:49:17;;;;;;;1.20;0.50;;;;;;;10.31;44.10;98322.23;102593;1295;600288;-22
2023/10/08 11:51:46;;;;;;;1.00;0.70;;;;;;;10.20;43.39;98319.97;104884;1266;61077;-21
2023/10/08 11:54:14;;;;;;;1.10;0.60;;;;;;;10.42;42.58;98319.14;104844;1266;61152;-22
2023/10/08 11:56:44;;;;;;;3.10;0.60;;;;;;;10.57;43.19;98331.61;104892;1266;72224;-25
2023/10/08 11:59:12;;;;;;;1.60;0.70;;;;;;;10.50;43.16;98331.36;104847;1272;73140;-24
2023/10/08 12:09:14;;;;;;;2.30;0.70;;;;;;;10.17;42.33;98325.13;102574;1292;600153;-23
2023/10/08 12:11:43;;;;;;;2.20;0.70;;;;;;;10.23;42.45;98332.20;104761;1266;61142;-25
2023/10/08 12:14:12;;;;;;;1.80;0.70;;;;;;;10.30;42.50;98323.61;104825;1266;61024;-24
2023/10/08 12:16:41;;;;;;;4.20;0.80;;;;;;;10.29;41.95;98323.40;104815;1266;72257;-25
2023/10/08 12:19:15;;;;;;;1.60;0.80;;;;;;;10.32;42.65;98327.91;104892;1269;73229;-23
2023/10/08 12:21:47;;;;;;;1.70;0.60;;;;;;;10.22;42.60;98322.81;102649;1267;3023246;-25
2023/10/08 12:24:16;;;;;;;0.80;0.40;;;;;;;10.32;41.92;98329.02;105210;1263;61122;-24
2023/10/08 12:26:47;;;;;;;0.90;0.50;;;;;;;10.37;42.45;98335.66;105040;1268;61193;-22
2023/10/08 12:36:52;;;;;;;2.10;0.60;;;;;;;10.44;39.60;98328.10;102680;1293;600175;-22
2023/10/08 12:39:25;;;;;;;3.60;0.80;;;;;;;10.50;40.18;98328.04;105040;1267;61141;-23
2023/10/08 12:41:53;;;;;;;0.60;0.40;;;;;;;10.60;39.83;98341.59;105226;1264;61136;-24
2023/10/08 12:44:23;;;;;;;2.70;0.80;;;;;;;10.86;41.01;98339.70;105210;1261;70943;-23
2023/10/08 12:53:06;;;;;;;3.80;0.70;;;;;;;10.58;37.85;98323.44;102757;1290;600568;-22
2023/10/08 13:03:23;;;;;;;1.50;0.60;;;;;;;10.37;39.00;98343.14;102766;1290;599963;-24
2023/10/08 13:05:52;;;;;;;1.00;0.50;;;;;;;10.32;37.19;98329.75;104872;1270;61119;-22
2023/10/08 13:08:20;;;;;;;1.00;0.70;;;;;;;10.27;36.60;98338.98;104867;1264;61164;-22
2023/10/08 13:10:48;;;;;;;1.90;0.70;;;;;;;10.33;36.70;98343.15;104900;1269;72177;-22
2023/10/08 13:13:16;;;;;;;0.80;0.50;;;;;;;10.35;37.55;98350.48;104887;1269;73235;-22
2023/10/08 13:23:35;;;;;;;2.70;0.50;;;;;;;9.82;39.94;98359.83;102553;1293;600220;-22
2023/10/08 13:26:07;;;;;;;0.90;0.50;;;;;;;10.04;39.59;98355.83;104849;1271;61197;-24
2023/10/08 13:28:35;;;;;;;1.20;0.80;;;;;;;10.00;39.68;98356.34;104914;1267;61161;-24
2023/10/08 13:31:09;;;;;;;1.20;0.60;;;;;;;9.82;40.50;98358.46;104826;1267;71300;-24
2023/10/08 13:33:39;;;;;;;1.50;0.70;;;;;;;9.61;40.38;98354.20;104756;1273;74437;-24
2023/10/08 13:36:10;;;;;;;4.10;0.60;;;;;;;9.73;41.00;98366.34;102508;1273;3090545;-25
2023/10/08 13:46:25;;;;;;;1.20;0.60;;;;;;;9.14;40.20;98357.32;102748;1290;600020;-22
2023/10/08 13:48:53;;;;;;;2.70;0.50;;;;;;;9.07;40.86;98372.41;105040;1265;61170;-22
2023/10/08 13:51:25;;;;;;;0.60;0.60;;;;;;;9.11;39.02;98366.88;104880;1269;61148;-23
2023/10/08 13:53:59;;;;;;;1.50;0.70;;;;;;;9.00;39.69;98376.29;104859;1264;70112;-22
2023/10/08 13:56:30;;;;;;;6.20;0.70;;;;;;;8.93;39.42;98376.92;104819;1264;74314;-23
2023/10/08 13:59:12;;;;;;;4.70;0.60;;;;;;;8.93;38.80;98362.15;102926;1260;3205770;-25
2023/10/08 14:09:22;;;;;;;3.10;0.60;;;;;;;9.34;38.59;98354.90;102614;1293;600187;-24
2023/10/08 14:19:36;;;;;;;0.60;0.40;;;;;;;9.43;39.40;98381.09;102728;1290;600147;-22
2023/10/08 14:22:04;;;;;;;1.00;0.50;;;;;;;9.39;37.97;98375.41;104859;1270;61298;-23
2023/10/08 14:32:15;;;;;;;1.00;0.60;;;;;;;9.51;36.70;98382.86;103021;1287;600210;-22
2023/10/08 14:42:57;;;;;;;4.90;0.70;;;;;;;9.23;36.96;98399.08;104814;1270;73118;-24
2023/10/08 14:45:31;;;;;;;1.20;0.80;;;;;;;9.14;37.17;98408.54;102748;1267;3075396;-22
2023/10/08 14:47:59;;;;;;;0.90;0.40;;;;;;;9.13;37.64;98404.16;105181;1267;61071;-23
2023/10/08 14:50:28;;;;;;;1.10;0.50;;;;;;;9.11;38.35;98423.04;105166;1263;61173;-23
2023/10/08 14:52:55;;;;;;;1.50;0.50;;;;;;;9.00;37.87;98419.75;104941;1267;73165;-24
2023/10/08 14:55:23;;;;;;;0.80;0.40;;;;;;;8.96;38.76;98430.27;105136;1277;74345;-24
2023/10/08 14:57:54;;;;;;;0.70;0.50;;;;;;;8.88;39.46;98434.25;105152;1269;72693;-24
2023/10/08 15:00:26;;;;;;;0.90;0.50;;;;;;;8.77;39.47;98431.86;105140;1264;61272;-23
2023/10/08 15:02:54;;;;;;;3.10;0.70;;;;;;;8.69;39.75;98438.94;104917;1267;61065;-24
2023/10/08 15:13:02;;;;;;;2.60;0.70;;;;;;;8.32;40.18;98449.36;103046;1289;599501;-22
2023/10/08 15:15:34;;;;;;;0.80;0.40;;;;;;;8.24;40.32;98454.02;104846;1269;61167;-22
2023/10/08 15:18:02;;;;;;;0.90;0.40;;;;;;;8.19;40.16;98459.58;105085;1269;61155;-23
2023/10/08 15:20:32;;;;;;;1.80;0.40;;;;;;;8.10;40.47;98455.14;104955;1263;72288;-24
2023/10/08 15:23:00;;;;;;;0.80;0.40;;;;;;;8.04;40.04;98462.66;105045;1263;73066;-25
2023/10/08 15:33:17;;;;;;;2.90;0.70;;;;;;;7.83;40.99;98486.46;102573;1293;600210;-24
2023/10/08 15:35:45;;;;;;;0.40;0.30;;;;;;;7.77;40.91;98484.20;104872;1267;61120;-24
2023/10/08 15:38:12;;;;;;;2.00;0.60;;;;;;;7.78;41.07;98489.45;104761;1271;61108;-23
2023/10/08 15:48:22;;;;;;;0.50;0.40;;;;;;;7.70;41.92;98508.08;102735;1290;600188;-22
2023/10/08 15:50:50;;;;;;;1.00;0.50;;;;;;;7.63;42.12;98511.20;105121;1264;61205;-24
2023/10/08 15:53:18;;;;;;;2.20;0.70;;;;;;;7.62;42.24;98515.39;105186;1260;61163;-24
2023/10/08 15:55:47;;;;;;;3.80;0.50;;;;;;;7.56;42.71;98519.64;105235;1260;72097;-24
2023/10/08 15:58:16;;;;;;;1.10;0.60;;;;;;;7.52;42.41;98520.31;105237;1260;74435;-24